createdAt,value
2022-09-20T00:01:17.993Z,7.47
2022-09-20T00:03:46.704Z,7.51
2022-09-20T00:06:16.161Z,7.51
2022-09-20T00:08:43.598Z,7.50
2022-09-20T00:11:18.618Z,7.51
2022-09-20T00:13:48.027Z,7.51
2022-09-20T00:16:17.855Z,7.53
2022-09-20T00:18:48.722Z,7.51
2022-09-20T00:21:17.449Z,7.45
2022-09-20T00:23:44.480Z,7.48
2022-09-20T00:26:11.039Z,7.53
2022-09-20T00:28:37.632Z,7.58
2022-09-20T00:31:04.894Z,7.65
2022-09-20T00:33:50.007Z,7.70
2022-09-20T00:36:16.682Z,7.73
2022-09-20T00:38:43.274Z,7.76
2022-09-20T00:41:10.183Z,7.83
2022-09-20T00:43:46.947Z,7.79
2022-09-20T00:46:28.376Z,7.68
2022-09-20T00:49:10.962Z,7.64
2022-09-20T00:51:41.502Z,7.63
2022-09-20T00:54:11.372Z,7.60
2022-09-20T00:56:41.469Z,7.62
2022-09-20T00:59:16.734Z,7.67
2022-09-20T01:01:46.285Z,7.77
2022-09-20T01:04:16.115Z,7.86
2022-09-20T01:06:45.235Z,7.83
2022-09-20T01:09:11.810Z,7.80
2022-09-20T01:11:42.490Z,7.76
2022-09-20T01:14:09.322Z,7.74
2022-09-20T01:16:37.514Z,7.77
2022-09-20T01:19:14.645Z,7.80
2022-09-20T01:21:41.512Z,7.86
2022-09-20T01:24:14.369Z,7.82
2022-09-20T01:26:55.315Z,7.69
2022-09-20T01:30:06.380Z,7.60
2022-09-20T01:32:55.355Z,7.50
2022-09-20T01:35:25.289Z,7.43
2022-09-20T01:38:24.219Z,7.34
2022-09-20T01:40:50.723Z,7.29
2022-09-20T01:43:35.980Z,7.17
2022-09-20T01:46:16.516Z,7.08
2022-09-20T01:48:43.147Z,6.98
2022-09-20T01:51:28.086Z,6.95
2022-09-20T01:54:33.179Z,6.84
2022-09-20T01:57:05.875Z,6.74
2022-09-20T02:00:10.044Z,6.68
2022-09-20T02:02:48.694Z,6.61
2022-09-20T02:05:34.022Z,6.50
2022-09-20T02:08:21.402Z,6.46
2022-09-20T02:10:54.016Z,6.44
2022-09-20T02:13:29.157Z,6.38
2022-09-20T02:16:25.243Z,6.31
2022-09-20T02:19:06.764Z,6.32
2022-09-20T02:22:08.869Z,6.27
2022-09-20T02:24:35.524Z,6.21
2022-09-20T02:27:23.858Z,6.18
2022-09-20T02:30:08.657Z,6.14
2022-09-20T02:32:35.132Z,6.07
2022-09-20T02:35:15.081Z,5.93
2022-09-20T02:37:53.588Z,5.80
2022-09-20T02:40:47.130Z,5.74
2022-09-20T02:43:41.938Z,5.68
2022-09-20T02:46:36.912Z,5.68
2022-09-20T02:49:28.280Z,5.61
2022-09-20T02:51:59.823Z,5.64
2022-09-20T02:54:44.674Z,5.75
2022-09-20T02:57:33.673Z,5.80
2022-09-20T03:00:14.825Z,5.88
2022-09-20T03:03:18.817Z,5.93
2022-09-20T03:06:22.217Z,6.00
2022-09-20T03:09:36.435Z,6.03
2022-09-20T03:12:24.675Z,6.11
2022-09-20T03:15:10.914Z,6.14
2022-09-20T03:18:00.694Z,6.24
2022-09-20T03:20:43.740Z,6.30
2022-09-20T03:23:42.226Z,6.48
2022-09-20T03:26:42.483Z,6.53
2022-09-20T03:29:19.602Z,6.57
2022-09-20T03:32:27.675Z,6.66
2022-09-20T03:35:15.823Z,6.73
2022-09-20T03:38:02.650Z,6.91
2022-09-20T03:40:46.486Z,6.83
2022-09-20T03:43:13.372Z,6.83
2022-09-20T03:45:58.209Z,6.83
2022-09-20T03:48:48.908Z,6.86
2022-09-20T03:51:42.846Z,6.86
2022-09-20T03:54:15.414Z,6.81
2022-09-20T03:57:00.193Z,6.83
2022-09-20T03:59:42.060Z,6.79
2022-09-20T04:02:09.288Z,6.81
2022-09-20T04:04:57.422Z,6.83
2022-09-20T04:07:51.933Z,6.78
2022-09-20T04:10:25.566Z,6.76
2022-09-20T04:13:29.734Z,6.74
2022-09-20T04:16:32.161Z,6.68
2022-09-20T04:19:01.833Z,6.56
2022-09-20T04:21:54.860Z,6.56
2022-09-20T04:24:41.984Z,6.47
2022-09-20T04:27:30.214Z,6.44
2022-09-20T04:30:19.446Z,6.44
2022-09-20T04:33:18.292Z,6.53
2022-09-20T04:36:09.150Z,6.50
2022-09-20T04:38:36.476Z,6.48
2022-09-20T04:41:26.246Z,6.65
2022-09-20T04:43:58.468Z,6.59
2022-09-20T04:47:13.533Z,6.49
2022-09-20T04:49:46.234Z,6.51
2022-09-20T04:52:30.961Z,6.40
2022-09-20T04:55:52.872Z,6.31
2022-09-20T04:58:54.665Z,6.21
2022-09-20T05:01:33.549Z,6.20
2022-09-20T05:04:09.058Z,6.22
2022-09-20T05:07:07.267Z,6.26
2022-09-20T05:09:54.448Z,6.26
2022-09-20T05:12:38.877Z,6.27
2022-09-20T05:15:24.147Z,6.26
2022-09-20T05:18:18.660Z,6.27
2022-09-20T05:20:51.053Z,6.32
2022-09-20T05:23:32.733Z,6.37
2022-09-20T05:26:17.971Z,6.35
2022-09-20T05:29:05.070Z,6.41
2022-09-20T05:31:41.595Z,6.54
2022-09-20T05:34:34.160Z,6.56
2022-09-20T05:37:03.383Z,6.62
2022-09-20T05:39:49.666Z,6.70
2022-09-20T05:42:33.779Z,6.88
2022-09-20T05:45:17.977Z,7.04
2022-09-20T05:47:49.726Z,7.09
2022-09-20T05:50:34.359Z,7.12
2022-09-20T05:53:36.077Z,7.13
2022-09-20T05:56:35.812Z,7.19
2022-09-20T05:59:20.648Z,7.29
2022-09-20T06:02:18.443Z,7.32
2022-09-20T06:05:26.232Z,7.36
2022-09-20T06:08:04.544Z,7.41
2022-09-20T06:10:58.845Z,7.40
2022-09-20T06:13:37.459Z,7.58
2022-09-20T06:16:06.924Z,7.67
2022-09-20T06:18:51.644Z,7.70
2022-09-20T06:21:55.316Z,7.77
2022-09-20T06:24:39.256Z,7.85
2022-09-20T06:27:12.974Z,7.79
2022-09-20T06:29:45.816Z,7.91
2022-09-20T06:32:16.875Z,7.95
2022-09-20T06:34:43.491Z,7.95
2022-09-20T06:37:53.946Z,8.02
2022-09-20T06:40:54.473Z,8.12
2022-09-20T06:43:21.023Z,8.08
2022-09-20T06:45:48.540Z,8.13
2022-09-20T06:48:15.679Z,8.16
2022-09-20T06:50:46.846Z,8.34
2022-09-20T06:53:19.105Z,8.38
2022-09-20T06:55:46.846Z,8.42
2022-09-20T06:58:14.847Z,8.32
2022-09-20T07:00:41.388Z,8.41
2022-09-20T07:03:08.453Z,8.34
2022-09-20T07:05:36.239Z,8.32
2022-09-20T07:08:03.383Z,8.38
2022-09-20T07:10:30.628Z,8.29
2022-09-20T07:12:59.417Z,8.28
2022-09-20T07:15:31.375Z,8.33
2022-09-20T07:17:57.925Z,8.30
2022-09-20T07:20:24.532Z,8.14
2022-09-20T07:22:52.239Z,8.02
2022-09-20T07:25:19.097Z,7.78
2022-09-20T07:27:47.016Z,7.82
2022-09-20T07:30:18.866Z,7.73
2022-09-20T07:32:45.497Z,7.73
2022-09-20T07:35:13.075Z,7.83
2022-09-20T07:37:43.847Z,7.79
2022-09-20T07:40:13.739Z,7.88
2022-09-20T07:42:40.297Z,7.87
2022-09-20T07:45:07.719Z,7.93
2022-09-20T07:47:35.452Z,7.94
2022-09-20T07:50:03.796Z,8.03
2022-09-20T07:52:30.542Z,8.15
2022-09-20T07:54:57.463Z,8.24
2022-09-20T07:57:24.105Z,8.51
2022-09-20T07:59:50.689Z,9.11
2022-09-20T08:02:17.383Z,9.42
2022-09-20T08:04:44.278Z,9.36
2022-09-20T08:07:12.526Z,9.30
2022-09-20T08:09:39.141Z,9.10
2022-09-20T08:14:52.725Z,8.85
2022-09-20T08:17:19.653Z,8.74
2022-09-20T08:19:46.320Z,8.79
2022-09-20T08:22:13.071Z,8.73
2022-09-20T08:24:39.736Z,8.74
2022-09-20T08:27:06.318Z,8.85
2022-09-20T08:29:32.881Z,9.01
2022-09-20T08:32:01.465Z,9.16
2022-09-20T08:34:28.284Z,9.25
2022-09-20T08:36:56.504Z,9.25
2022-09-20T08:42:14.778Z,8.82
2022-09-20T08:44:46.912Z,8.71
2022-09-20T08:47:19.199Z,8.61
2022-09-20T08:49:46.383Z,8.61
2022-09-20T08:52:19.409Z,8.69
2022-09-20T08:54:46.809Z,8.71
2022-09-20T08:57:17.788Z,8.69
2022-09-20T08:59:44.914Z,8.67
2022-09-20T09:02:17.527Z,8.68
2022-09-20T09:04:45.424Z,8.70
2022-09-20T09:07:14.457Z,8.84
2022-09-20T09:09:44.282Z,9.01
2022-09-20T09:12:20.884Z,9.11
2022-09-20T09:14:57.210Z,9.21
2022-09-20T09:17:30.932Z,9.35
2022-09-20T09:20:08.254Z,9.36
2022-09-20T09:22:38.234Z,9.43
2022-09-20T09:25:15.266Z,9.55
2022-09-20T09:27:52.815Z,9.79
2022-09-20T09:30:37.333Z,10.03
2022-09-20T09:33:27.911Z,10.01
2022-09-20T09:36:14.837Z,9.93
2022-09-20T09:38:46.226Z,9.78
2022-09-20T09:41:29.793Z,9.60
2022-09-20T09:44:18.602Z,9.83
2022-09-20T09:46:45.647Z,10.29
2022-09-20T09:49:22.590Z,11.06
2022-09-20T09:52:03.064Z,11.18
2022-09-20T09:54:34.991Z,11.09
2022-09-20T09:57:30.519Z,10.90
2022-09-20T10:00:21.845Z,10.66
2022-09-20T10:03:01.124Z,10.31
2022-09-20T10:05:58.497Z,10.29
2022-09-20T10:08:28.598Z,10.23
2022-09-20T10:11:22.970Z,10.25
2022-09-20T10:14:10.656Z,10.41
2022-09-20T10:16:53.042Z,10.38
2022-09-20T10:19:25.791Z,10.42
2022-09-20T10:22:19.480Z,10.37
2022-09-20T10:24:51.484Z,10.38
2022-09-20T10:27:39.310Z,10.54
2022-09-20T10:30:19.908Z,10.63
2022-09-20T10:32:59.827Z,10.64
2022-09-20T10:35:55.704Z,10.60
2022-09-20T10:38:38.254Z,10.66
2022-09-20T10:41:48.370Z,10.78
2022-09-20T10:44:38.278Z,10.92
2022-09-20T10:47:30.787Z,11.08
2022-09-20T10:50:34.801Z,11.07
2022-09-20T10:53:21.002Z,11.08
2022-09-20T10:55:57.596Z,11.20
2022-09-20T10:58:56.923Z,11.38
2022-09-20T11:01:43.014Z,11.71
2022-09-20T11:04:15.744Z,11.92
2022-09-20T11:07:02.758Z,11.74
2022-09-20T11:09:38.249Z,12.46
2022-09-20T11:12:29.539Z,13.37
2022-09-20T11:15:04.369Z,14.47
2022-09-20T11:17:39.714Z,14.80
2022-09-20T11:20:15.672Z,14.66
2022-09-20T11:23:10.524Z,14.18
2022-09-20T11:25:47.238Z,14.20
2022-09-20T11:28:36.252Z,14.09
2022-09-20T11:31:25.931Z,14.24
2022-09-20T11:33:56.444Z,14.35
2022-09-20T11:36:34.220Z,14.09
2022-09-20T11:39:05.911Z,14.64
2022-09-20T11:41:33.500Z,14.86
2022-09-20T11:44:12.027Z,15.10
2022-09-20T11:47:00.467Z,14.67
2022-09-20T11:49:51.394Z,14.56
2022-09-20T11:52:34.136Z,14.43
2022-09-20T11:55:00.682Z,14.32
2022-09-20T11:57:28.476Z,14.32
2022-09-20T11:59:58.676Z,14.44
2022-09-20T12:02:37.230Z,14.76
2022-09-20T12:05:06.369Z,14.73
2022-09-20T12:07:38.124Z,14.91
2022-09-20T12:10:23.268Z,14.92
2022-09-20T12:12:57.593Z,14.76
2022-09-20T12:15:29.715Z,14.63
2022-09-20T12:17:56.187Z,14.46
2022-09-20T12:20:34.985Z,14.35
2022-09-20T12:23:42.260Z,15.00
2022-09-20T12:26:20.309Z,15.83
2022-09-20T12:28:57.062Z,16.00
2022-09-20T12:31:29.536Z,15.62
2022-09-20T12:34:14.370Z,15.67
2022-09-20T12:36:43.816Z,16.88
2022-09-20T12:39:17.574Z,18.07
2022-09-20T12:41:59.382Z,19.75
2022-09-20T12:44:37.799Z,20.64
2022-09-20T12:47:10.467Z,20.27
2022-09-20T12:50:00.507Z,20.98
2022-09-20T12:52:48.132Z,21.83
2022-09-20T12:55:33.597Z,21.85
2022-09-20T12:58:11.790Z,21.78
2022-09-20T13:00:46.419Z,21.76
2022-09-20T13:03:16.433Z,22.87
2022-09-20T13:05:49.434Z,22.61
2022-09-20T13:08:20.567Z,22.10
2022-09-20T13:10:57.734Z,22.36
2022-09-20T13:13:29.441Z,21.71
2022-09-20T13:15:57.652Z,20.33
2022-09-20T13:18:26.343Z,19.00
2022-09-20T13:20:54.865Z,18.36
2022-09-20T13:23:31.868Z,18.63
2022-09-20T13:25:58.717Z,17.31
2022-09-20T13:28:34.278Z,16.71
2022-09-20T13:31:22.755Z,16.93
2022-09-20T13:33:50.094Z,16.25
2022-09-20T13:36:26.475Z,15.98
2022-09-20T13:38:55.211Z,15.78
2022-09-20T13:41:23.039Z,15.04
2022-09-20T13:43:51.040Z,15.01
2022-09-20T13:46:43.707Z,15.10
2022-09-20T13:49:23.570Z,15.76
2022-09-20T13:51:50.749Z,15.90
2022-09-20T13:54:35.472Z,16.50
2022-09-20T13:57:05.120Z,17.08
2022-09-20T13:59:36.435Z,17.41
2022-09-20T14:02:03.914Z,17.50
2022-09-20T14:04:34.005Z,17.22
2022-09-20T14:07:00.863Z,17.93
2022-09-20T14:09:35.011Z,18.54
2022-09-20T14:12:03.781Z,19.42
2022-09-20T14:14:32.111Z,19.58
2022-09-20T14:17:01.730Z,19.45
2022-09-20T14:19:37.037Z,18.74
2022-09-20T14:22:04.979Z,18.62
2022-09-20T14:24:35.231Z,18.23
2022-09-20T14:27:20.504Z,17.97
2022-09-20T14:29:49.724Z,17.84
2022-09-20T14:32:19.393Z,17.91
2022-09-20T14:34:55.073Z,17.49
2022-09-20T14:37:25.909Z,17.42
2022-09-20T14:39:58.041Z,16.57
2022-09-20T14:42:41.124Z,15.89
2022-09-20T14:45:08.900Z,15.52
2022-09-20T14:47:38.604Z,15.35
2022-09-20T14:50:24.093Z,15.39
2022-09-20T14:53:00.996Z,15.35
2022-09-20T14:55:36.471Z,15.20
2022-09-20T14:58:12.304Z,15.13
2022-09-20T15:00:47.744Z,14.75
2022-09-20T15:03:17.229Z,14.31
2022-09-20T15:05:47.689Z,14.28
2022-09-20T15:08:15.633Z,14.44
2022-09-20T15:10:42.158Z,14.50
2022-09-20T15:13:10.809Z,14.38
2022-09-20T15:15:38.000Z,14.42
2022-09-20T15:18:12.847Z,14.72
2022-09-20T15:20:39.400Z,14.81
2022-09-20T15:23:08.678Z,15.14
2022-09-20T15:25:35.263Z,15.01
2022-09-20T15:28:01.885Z,14.52
2022-09-20T15:30:28.621Z,14.64
2022-09-20T15:32:57.665Z,14.51
2022-09-20T15:35:26.219Z,14.45
2022-09-20T15:37:52.750Z,14.35
2022-09-20T15:40:19.436Z,14.16
2022-09-20T15:42:47.072Z,13.66
2022-09-20T15:45:13.658Z,13.71
2022-09-20T15:47:40.564Z,13.75
2022-09-20T15:50:08.825Z,13.38
2022-09-20T15:52:37.395Z,13.36
2022-09-20T15:55:04.446Z,13.28
2022-09-20T15:57:31.943Z,13.13
2022-09-20T16:00:01.450Z,12.96
2022-09-20T16:02:35.161Z,12.74
2022-09-20T16:05:03.962Z,12.86
2022-09-20T16:07:30.505Z,13.08
2022-09-20T16:09:57.278Z,13.01
2022-09-20T16:12:25.124Z,12.96
2022-09-20T16:14:51.665Z,12.76
2022-09-20T16:17:18.778Z,12.48
2022-09-20T16:19:48.604Z,12.31
2022-09-20T16:22:16.030Z,12.11
2022-09-20T16:24:42.578Z,11.71
2022-09-20T16:27:09.812Z,11.68
2022-09-20T16:29:36.398Z,11.62
2022-09-20T16:32:03.874Z,11.63
2022-09-20T16:34:35.784Z,11.37
2022-09-20T16:37:10.334Z,11.29
2022-09-20T16:39:37.194Z,11.26
2022-09-20T16:42:06.625Z,11.27
2022-09-20T16:44:35.358Z,11.05
2022-09-20T16:47:05.224Z,11.03
2022-09-20T16:49:31.815Z,11.08
2022-09-20T16:51:58.374Z,11.03
2022-09-20T16:54:28.469Z,11.00
2022-09-20T16:56:57.656Z,10.94
2022-09-20T16:59:24.157Z,10.89
2022-09-20T17:01:51.358Z,10.83
2022-09-20T17:04:20.141Z,10.84
2022-09-20T17:06:47.889Z,10.78
2022-09-20T17:09:16.001Z,10.82
2022-09-20T17:11:49.171Z,10.74
2022-09-20T17:14:18.547Z,10.69
2022-09-20T17:16:47.842Z,10.70
2022-09-20T17:19:16.678Z,10.59
2022-09-20T17:21:50.246Z,10.54
2022-09-20T17:24:18.994Z,10.46
2022-09-20T17:26:46.092Z,10.34
2022-09-20T17:29:16.187Z,10.26
2022-09-20T17:31:48.786Z,10.20
2022-09-20T17:34:21.454Z,10.21
2022-09-20T17:36:48.379Z,10.22
2022-09-20T17:39:16.159Z,10.23
2022-09-20T17:41:48.062Z,10.22
2022-09-20T17:44:15.579Z,10.13
2022-09-20T17:46:44.485Z,10.05
2022-09-20T17:49:13.071Z,10.07
2022-09-20T17:51:51.093Z,10.00
2022-09-20T17:54:19.146Z,9.95
2022-09-20T17:56:51.207Z,9.96
2022-09-20T17:59:19.022Z,9.89
2022-09-20T18:01:48.244Z,9.85
2022-09-20T18:04:14.885Z,9.67
2022-09-20T18:06:44.333Z,9.63
2022-09-20T18:09:15.152Z,9.51
2022-09-20T18:11:48.746Z,9.53
2022-09-20T18:14:17.528Z,9.46
2022-09-20T18:16:47.072Z,9.33
2022-09-20T18:19:15.916Z,9.18
2022-09-20T18:21:42.835Z,9.17
2022-09-20T18:24:11.470Z,9.21
2022-09-20T18:26:39.201Z,9.16
2022-09-20T18:29:13.317Z,9.07
2022-09-20T18:31:45.244Z,9.02
2022-09-20T18:34:17.813Z,8.87
2022-09-20T18:36:52.988Z,8.85
2022-09-20T18:39:21.281Z,8.89
2022-09-20T18:41:50.471Z,8.80
2022-09-20T18:44:18.499Z,8.78
2022-09-20T18:46:46.176Z,8.77
2022-09-20T18:49:15.005Z,8.82
2022-09-20T18:51:43.283Z,8.89
2022-09-20T18:54:11.038Z,8.98
2022-09-20T18:56:39.682Z,9.02
2022-09-20T18:59:27.449Z,8.93
2022-09-20T19:02:04.668Z,8.80
2022-09-20T19:04:53.212Z,8.70
2022-09-20T19:07:40.589Z,8.73
2022-09-20T19:10:48.568Z,8.82
2022-09-20T19:13:38.061Z,8.82
2022-09-20T19:16:19.677Z,8.77
2022-09-20T19:18:49.095Z,8.69
2022-09-20T19:21:51.211Z,8.56
2022-09-20T19:24:45.112Z,8.60
2022-09-20T19:27:13.891Z,8.67
2022-09-20T19:29:41.011Z,8.60
2022-09-20T19:32:14.911Z,8.67
2022-09-20T19:34:46.753Z,8.67
2022-09-20T19:37:19.104Z,8.60
2022-09-20T19:40:03.853Z,8.59
2022-09-20T19:43:09.139Z,8.59
2022-09-20T19:45:44.732Z,8.58
2022-09-20T19:48:45.007Z,8.48
2022-09-20T19:51:12.640Z,8.38
2022-09-20T19:53:40.083Z,8.37
2022-09-20T19:56:12.711Z,8.30
2022-09-20T19:58:45.359Z,8.13
2022-09-20T20:01:12.762Z,8.04
2022-09-20T20:03:39.563Z,8.06
2022-09-20T20:06:29.187Z,8.10
2022-09-20T20:09:25.254Z,7.97
2022-09-20T20:12:06.855Z,8.01
2022-09-20T20:14:40.255Z,8.07
2022-09-20T20:17:25.686Z,8.10
2022-09-20T20:19:52.134Z,8.03
2022-09-20T20:22:36.791Z,8.02
2022-09-20T20:25:03.944Z,8.11
2022-09-20T20:27:32.446Z,8.17
2022-09-20T20:29:58.998Z,8.18
2022-09-20T20:32:25.831Z,8.24
2022-09-20T20:34:52.427Z,8.32
2022-09-20T20:37:18.960Z,8.36
2022-09-20T20:39:45.794Z,8.44
2022-09-20T20:42:12.733Z,8.54
2022-09-20T20:44:39.377Z,8.62
2022-09-20T20:47:07.122Z,8.62
2022-09-20T20:49:33.848Z,8.51
2022-09-20T20:52:04.546Z,8.53
2022-09-20T20:54:32.242Z,8.54
2022-09-20T20:56:59.451Z,8.53
2022-09-20T20:59:26.093Z,8.56
2022-09-20T21:01:52.759Z,8.57
2022-09-20T21:04:19.968Z,8.57
2022-09-20T21:06:46.564Z,8.61
2022-09-20T21:09:13.484Z,8.62
2022-09-20T21:11:44.273Z,8.48
2022-09-20T21:14:12.664Z,8.44
2022-09-20T21:16:45.058Z,8.45
2022-09-20T21:19:15.510Z,8.47
2022-09-20T21:21:44.193Z,8.39
2022-09-20T21:24:13.434Z,8.40
2022-09-20T21:26:40.696Z,8.42
2022-09-20T21:29:12.252Z,8.40
2022-09-20T21:31:39.819Z,8.46
2022-09-20T21:34:08.075Z,8.55
2022-09-20T21:36:35.961Z,8.37
2022-09-20T21:39:03.843Z,8.20
2022-09-20T21:41:32.507Z,8.18
2022-09-20T21:44:02.172Z,8.13
2022-09-20T21:46:33.261Z,8.06
2022-09-20T21:49:03.934Z,8.02
2022-09-20T21:51:31.365Z,7.88
2022-09-20T21:53:59.649Z,7.92
2022-09-20T21:56:27.701Z,7.95
2022-09-20T21:58:55.012Z,7.94
2022-09-20T22:01:26.719Z,7.82
2022-09-20T22:04:00.129Z,7.81
2022-09-20T22:06:29.942Z,7.67
2022-09-20T22:08:58.465Z,7.45
2022-09-20T22:11:26.976Z,7.32
2022-09-20T22:13:55.179Z,7.31
2022-09-20T22:16:23.719Z,7.44
2022-09-20T22:18:50.614Z,7.42
2022-09-20T22:21:26.278Z,7.42
2022-09-20T22:23:58.617Z,7.39
2022-09-20T22:26:27.975Z,7.37
2022-09-20T22:28:54.782Z,7.34
2022-09-20T22:31:24.174Z,7.20
2022-09-20T22:33:55.631Z,7.11
2022-09-20T22:36:28.650Z,7.05
2022-09-20T22:38:56.034Z,6.82
2022-09-20T22:41:23.485Z,6.75
2022-09-20T22:43:50.458Z,6.66
2022-09-20T22:46:19.378Z,6.49
2022-09-20T22:48:46.627Z,6.50
2022-09-20T22:51:15.744Z,6.47
2022-09-20T22:53:42.908Z,6.37
2022-09-20T22:56:15.964Z,6.35
2022-09-20T22:58:45.152Z,6.35
2022-09-20T23:01:19.899Z,6.26
2022-09-20T23:03:57.824Z,6.04
2022-09-20T23:06:27.831Z,5.98
2022-09-20T23:08:57.243Z,5.94
2022-09-20T23:11:24.906Z,5.93
2022-09-20T23:13:56.533Z,5.94
2022-09-20T23:16:27.100Z,5.89
2022-09-20T23:18:55.071Z,5.88
2022-09-20T23:21:22.106Z,5.92
2022-09-20T23:23:54.067Z,5.89
2022-09-20T23:26:21.333Z,5.80
2022-09-20T23:28:55.442Z,5.84
2022-09-20T23:31:22.861Z,5.78
2022-09-20T23:33:55.184Z,5.71
2022-09-20T23:36:22.671Z,5.51
2022-09-20T23:38:50.074Z,5.35
2022-09-20T23:41:19.171Z,5.28
2022-09-20T23:43:45.910Z,5.23
2022-09-20T23:46:14.471Z,5.18
2022-09-20T23:48:41.917Z,5.12
2022-09-20T23:51:11.274Z,4.94
2022-09-20T23:53:37.975Z,4.77
2022-09-20T23:56:06.143Z,4.65
2022-09-20T23:58:35.800Z,4.62
